Time;durP1;ratioP1;P1;durP2;ratioP2;P2;SDS_P1;SDS_P2;PMS_P1;PMS_P2;Temp;Humidity;BMP_temperature;BMP_pressure;BME280_temperature;BME280_humidity;BME280_pressure;Samples;Min_cycle;Max_cycle;Signal;HPM_P1;HPM_P2
2023/05/03 00:01:14;;;;;;;;;12.25;12.25;;;;;14.84;53.64;102047.25;5038830;28;45502;-66
2023/05/03 00:03:39;;;;;;;;;13.50;13.00;;;;;14.81;53.39;102044.63;5038684;28;45406;-66
2023/05/03 00:06:14;;;;;;;;;14.00;12.25;;;;;14.93;53.23;102076.53;5039057;28;45380;-66
2023/05/03 00:08:40;;;;;;;;;12.50;11.00;;;;;14.69;53.38;102040.50;5037433;28;45443;-66
2023/05/03 00:11:07;;;;;;;;;12.50;11.00;;;;;14.66;53.18;102051.34;5028099;28;45517;-66
2023/05/03 00:13:33;;;;;;;;;14.50;12.00;;;;;14.50;53.32;102036.53;5025456;28;45296;-66
2023/05/03 00:15:58;;;;;;;;;13.25;12.75;;;;;14.30;53.76;102007.53;5042703;28;45873;-66
2023/05/03 00:18:23;;;;;;;;;12.00;12.00;;;;;14.42;53.61;102026.91;5038713;28;45381;-66
2023/05/03 00:20:50;;;;;;;;;11.75;11.25;;;;;14.39;53.23;102023.41;5038659;28;46461;-66
2023/05/03 00:23:15;;;;;;;;;10.75;9.50;;;;;14.57;53.69;102051.59;5022626;28;45332;-66
2023/05/03 00:25:41;;;;;;;;;10.00;10.00;;;;;14.53;53.38;102056.13;5032006;28;45332;-66
2023/05/03 00:28:06;;;;;;;;;11.50;10.00;;;;;14.44;53.34;102053.72;5038576;28;45488;-66
2023/05/03 00:30:31;;;;;;;;;11.00;9.75;;;;;14.29;53.67;102035.34;5036769;28;45643;-66
2023/05/03 00:32:57;;;;;;;;;11.75;9.75;;;;;14.40;53.28;102068.16;5020537;28;45471;-66
2023/05/03 00:35:22;;;;;;;;;10.25;10.25;;;;;14.21;52.77;102040.91;5038487;28;45429;-66
2023/05/03 00:37:47;;;;;;;;;9.25;9.00;;;;;14.37;52.76;102071.81;5010840;28;45452;-66
2023/05/03 00:40:17;;;;;;;;;10.25;10.00;;;;;14.29;52.94;102067.56;5031958;28;45999;-66
2023/05/03 00:42:43;;;;;;;;;10.00;10.00;;;;;14.24;52.64;102060.50;5038318;28;45257;-66
2023/05/03 00:45:09;;;;;;;;;10.25;8.75;;;;;14.12;53.02;102042.06;5037807;28;45245;-66
2023/05/03 00:47:35;;;;;;;;;12.75;9.50;;;;;14.17;52.65;102041.94;5037702;28;45396;-66
2023/05/03 00:50:01;;;;;;;;;10.75;10.25;;;;;14.07;52.44;102030.56;5038011;28;46271;-66
2023/05/03 00:52:27;;;;;;;;;8.25;8.25;;;;;14.02;52.54;102027.09;5039125;28;45411;-66
2023/05/03 00:54:53;;;;;;;;;10.00;10.00;;;;;13.97;52.62;102013.81;5020516;28;45423;-66
2023/05/03 00:57:20;;;;;;;;;14.00;10.00;;;;;14.11;52.30;102044.78;5040166;28;45723;-66
2023/05/03 00:59:45;;;;;;;;;7.75;7.75;;;;;13.89;52.60;102015.81;5022775;28;47237;-66
2023/05/03 01:02:11;;;;;;;;;10.25;9.00;;;;;13.98;52.44;102031.69;5040781;28;45530;-66
2023/05/03 01:04:37;;;;;;;;;8.75;8.75;;;;;13.86;52.24;102011.38;5041764;28;45593;-66
2023/05/03 01:07:30;;;;;;;;;10.50;8.50;;;;;14.05;52.23;102054.75;5041192;28;45290;-66
2023/05/03 01:10:10;;;;;;;;;10.25;9.25;;;;;13.99;52.53;102052.22;5040406;28;45539;-66
2023/05/03 01:12:38;;;;;;;;;7.25;7.25;;;;;13.93;52.46;102051.50;5023534;28;45418;-66
2023/05/03 01:15:12;;;;;;;;;8.00;8.00;;;;;13.85;52.42;102039.16;5041376;28;45431;-66
2023/05/03 01:17:47;;;;;;;;;10.50;10.50;;;;;13.73;52.83;102012.63;5045815;28;45379;-66
2023/05/03 01:20:13;;;;;;;;;11.00;9.00;;;;;13.64;52.48;101992.28;5029371;28;45522;-66
2023/05/03 01:22:49;;;;;;;;;10.00;9.00;;;;;13.60;52.56;101990.59;5041054;28;45487;-66
2023/05/03 01:25:15;;;;;;;;;12.00;8.75;;;;;13.49;52.36;101982.78;5041492;28;45550;-66
2023/05/03 01:27:41;;;;;;;;;10.25;10.25;;;;;13.60;52.17;102004.00;5040212;28;45694;-66
2023/05/03 01:30:11;;;;;;;;;8.00;8.00;;;;;13.59;52.64;102006.72;5040356;28;45435;-66
2023/05/03 01:32:42;;;;;;;;;11.50;9.00;;;;;13.82;52.19;102057.16;5041004;28;45493;-66
2023/05/03 01:35:14;;;;;;;;;12.25;10.50;;;;;13.75;52.21;102047.47;5023363;28;45404;-66
2023/05/03 01:37:41;;;;;;;;;12.75;12.00;;;;;13.56;52.32;102022.91;5022716;28;46028;-66
2023/05/03 01:40:09;;;;;;;;;9.75;9.00;;;;;13.68;52.33;102053.00;5040959;28;46385;-66
2023/05/03 01:42:36;;;;;;;;;12.25;11.75;;;;;13.32;52.64;102003.78;5040799;28;45360;-66
2023/05/03 01:45:03;;;;;;;;;13.50;10.50;;;;;13.31;52.97;102008.25;5040511;28;45444;-66
2023/05/03 01:47:29;;;;;;;;;12.25;10.75;;;;;13.31;52.53;102028.81;5039130;28;45392;-66
2023/05/03 01:49:55;;;;;;;;;6.25;4.25;;;;;13.30;52.31;102033.28;5032390;28;45483;-66
2023/05/03 01:52:20;;;;;;;;;15.00;12.00;;;;;13.23;52.36;102022.72;5040416;28;45629;-66
2023/05/03 01:54:45;;;;;;;;;14.75;13.00;;;;;13.34;53.00;102040.38;5040890;28;45317;-66
2023/05/03 01:57:11;;;;;;;;;12.25;12.25;;;;;13.20;52.82;102012.06;5039559;28;45568;-66
2023/05/03 01:59:36;;;;;;;;;8.50;8.00;;;;;13.39;53.29;102047.44;5040675;28;46412;-66
2023/05/03 02:02:02;;;;;;;;;10.50;10.50;;;;;13.30;52.42;102027.94;5040536;28;45257;-66
2023/05/03 02:04:29;;;;;;;;;9.50;8.25;;;;;13.42;52.87;102045.56;5040367;28;45515;-66
2023/05/03 02:06:54;;;;;;;;;10.50;10.50;;;;;13.45;53.28;102041.94;5040279;28;45249;-66
2023/05/03 02:09:19;;;;;;;;;11.75;10.75;;;;;13.43;53.03;102041.06;5038595;28;46568;-66
2023/05/03 02:11:45;;;;;;;;;11.50;11.25;;;;;13.39;52.96;102042.94;5022574;28;45324;-66
2023/05/03 02:14:11;;;;;;;;;14.75;11.25;;;;;13.49;52.87;102049.84;5040703;28;45357;-66
2023/05/03 02:16:36;;;;;;;;;13.50;11.25;;;;;13.34;53.39;102012.69;5044703;28;45348;-66
2023/05/03 02:19:02;;;;;;;;;10.75;10.75;;;;;13.29;52.87;102010.06;5040419;28;46438;-66
2023/05/03 02:21:27;;;;;;;;;17.75;13.25;;;;;13.38;53.33;102027.81;5040259;28;45308;-66
2023/05/03 02:23:53;;;;;;;;;18.00;14.75;;;;;13.34;52.99;102026.09;5040300;28;45386;-66
2023/05/03 02:26:19;;;;;;;;;17.00;14.50;;;;;13.49;53.24;102065.09;5038878;28;45603;-66
2023/05/03 02:28:44;;;;;;;;;14.00;12.75;;;;;13.27;53.17;102038.72;5031082;28;45414;-65
2023/05/03 02:31:10;;;;;;;;;15.50;14.00;;;;;13.40;53.36;102068.88;5038227;28;45457;-66
2023/05/03 02:33:35;;;;;;;;;10.75;10.75;;;;;13.20;53.81;102033.53;5040435;28;45494;-66
2023/05/03 02:36:01;;;;;;;;;15.75;13.25;;;;;13.21;53.34;102052.25;5040016;28;45450;-66
2023/05/03 02:38:26;;;;;;;;;15.00;13.00;;;;;13.17;53.74;102037.19;5021770;28;47333;-66
2023/05/03 02:40:51;;;;;;;;;16.75;15.00;;;;;13.28;53.82;102042.28;5039824;28;45305;-66
2023/05/03 02:43:17;;;;;;;;;15.75;14.25;;;;;13.13;53.82;102028.31;5040098;28;45332;-65
2023/05/03 02:45:43;;;;;;;;;16.00;14.50;;;;;13.29;53.92;102052.09;5039150;28;45818;-66
2023/05/03 02:48:08;;;;;;;;;16.50;15.00;;;;;13.11;53.84;102037.31;5039025;28;45411;-66
2023/05/03 02:50:34;;;;;;;;;15.75;11.75;;;;;13.06;54.52;102028.47;5039808;28;45321;-66
2023/05/03 02:53:00;;;;;;;;;15.25;14.50;;;;;13.12;54.18;102042.63;5039837;28;45336;-66
2023/05/03 02:55:26;;;;;;;;;15.00;12.25;;;;;12.96;53.87;102014.41;5038898;28;45269;-66
2023/05/03 02:57:51;;;;;;;;;15.50;14.50;;;;;13.03;54.33;102033.91;5039444;28;46820;-66
2023/05/03 03:00:17;;;;;;;;;15.75;15.50;;;;;13.19;54.31;102067.50;5039753;28;45578;-66
2023/05/03 03:02:42;;;;;;;;;16.00;14.75;;;;;12.98;54.74;102026.88;5039827;28;45384;-66
2023/05/03 03:05:08;;;;;;;;;15.50;15.50;;;;;13.17;54.29;102053.25;5039606;28;45467;-66
2023/05/03 03:07:34;;;;;;;;;19.50;16.00;;;;;13.04;54.52;102036.56;5038908;28;45391;-66
2023/05/03 03:09:59;;;;;;;;;13.50;12.25;;;;;12.94;54.59;102019.78;5039419;28;45578;-66
2023/05/03 03:12:26;;;;;;;;;14.00;13.00;;;;;12.89;54.86;102002.06;5039755;28;45383;-66
2023/05/03 03:14:51;;;;;;;;;14.75;13.25;;;;;13.03;54.42;102025.88;5021885;28;46383;-66
2023/05/03 03:17:17;;;;;;;;;15.00;13.50;;;;;13.04;55.00;102016.91;5044089;28;45559;-66
2023/05/03 03:19:42;;;;;;;;;16.00;13.25;;;;;12.96;54.67;102007.25;5039322;28;45292;-66
2023/05/03 03:22:08;;;;;;;;;16.25;15.00;;;;;13.11;54.56;102035.53;5039266;28;45275;-66
2023/05/03 03:24:34;;;;;;;;;12.75;12.75;;;;;12.82;54.67;101979.88;5039792;28;45473;-66
2023/05/03 03:27:00;;;;;;;;;14.50;13.50;;;;;13.06;54.84;102036.53;5035787;28;45636;-66
2023/05/03 03:29:26;;;;;;;;;14.50;14.00;;;;;12.82;54.92;101995.06;5039142;28;45324;-65
2023/05/03 03:31:52;;;;;;;;;15.25;15.00;;;;;12.79;55.07;101998.69;5021569;28;45436;-65
2023/05/03 03:34:20;;;;;;;;;19.75;16.00;;;;;12.93;55.12;102028.75;5038530;28;45460;-66
2023/05/03 03:36:45;;;;;;;;;20.25;20.25;;;;;12.71;54.92;102000.66;5038857;28;45635;-66
2023/05/03 03:39:10;;;;;;;;;17.00;15.50;;;;;12.75;55.12;102005.03;5039134;28;45411;-66
2023/05/03 03:41:36;;;;;;;;;16.00;15.75;;;;;12.53;54.90;101969.75;5039336;28;45371;-65
2023/05/03 03:44:01;;;;;;;;;12.25;10.50;;;;;12.66;55.13;102005.22;5020291;28;45455;-66
2023/05/03 03:46:27;;;;;;;;;13.25;13.25;;;;;12.69;55.33;102021.25;5038132;28;45490;-66
2023/05/03 03:48:52;;;;;;;;;17.50;16.00;;;;;12.70;55.41;102018.53;5027801;28;45514;-66
2023/05/03 03:51:17;;;;;;;;;13.25;13.25;;;;;12.61;55.78;102008.00;5034534;28;45751;-66
2023/05/03 03:53:43;;;;;;;;;17.50;14.75;;;;;12.45;55.40;101977.97;5016645;28;45516;-66
2023/05/03 03:56:08;;;;;;;;;19.50;17.25;;;;;12.47;55.51;101994.91;5038131;28;46562;-66
2023/05/03 03:58:34;;;;;;;;;19.00;17.75;;;;;12.38;56.22;101982.56;5036456;28;45351;-65
2023/05/03 04:01:00;;;;;;;;;23.00;18.00;;;;;12.45;56.08;101980.66;5039090;28;45259;-65
2023/05/03 04:03:26;;;;;;;;;12.25;12.25;;;;;12.40;56.19;101972.72;5038736;28;45641;-66
2023/05/03 04:05:51;;;;;;;;;20.00;19.75;;;;;12.58;56.12;102002.72;5038834;28;45327;-66
2023/05/03 04:08:17;;;;;;;;;21.50;20.00;;;;;12.33;55.96;101954.09;5037749;28;45362;-66
2023/05/03 04:10:42;;;;;;;;;22.50;18.50;;;;;12.46;56.04;101981.53;5038864;28;45408;-66
2023/05/03 04:13:08;;;;;;;;;25.25;21.75;;;;;12.46;56.09;101979.72;5038645;28;45399;-66
2023/05/03 04:15:33;;;;;;;;;24.25;20.50;;;;;12.67;56.47;102021.28;5039356;28;45409;-66
2023/05/03 04:17:59;;;;;;;;;15.75;14.75;;;;;12.56;56.37;101996.50;5041940;28;45381;-66
2023/05/03 04:20:24;;;;;;;;;18.00;14.00;;;;;12.55;56.24;101994.75;5038859;28;45377;-66
2023/05/03 04:22:49;;;;;;;;;20.75;18.00;;;;;12.42;56.22;101970.88;5038094;28;45475;-66
2023/05/03 04:25:15;;;;;;;;;20.25;18.50;;;;;12.47;56.21;101994.03;5037330;28;45951;-66
2023/05/03 04:27:42;;;;;;;;;23.75;21.50;;;;;12.42;56.13;101986.94;5041128;28;45398;-66
2023/05/03 04:30:08;;;;;;;;;17.75;16.00;;;;;12.37;56.04;101970.09;5042317;28;45571;-66
2023/05/03 04:32:36;;;;;;;;;16.00;16.00;;;;;12.50;56.08;101986.81;5042094;28;45407;-66
2023/05/03 04:35:09;;;;;;;;;18.50;16.25;;;;;12.56;56.38;102008.13;5042049;28;45645;-66
2023/05/03 04:37:39;;;;;;;;;17.25;15.00;;;;;12.39;56.39;101975.41;5041598;28;45347;-66
2023/05/03 04:40:07;;;;;;;;;16.50;16.00;;;;;12.31;56.37;101972.91;5042129;28;45400;-66
2023/05/03 04:42:33;;;;;;;;;19.00;17.00;;;;;12.50;56.53;102013.59;5041736;28;45470;-66
2023/05/03 04:45:01;;;;;;;;;19.00;15.50;;;;;12.30;56.25;101979.16;5041170;28;45497;-66
2023/05/03 04:47:27;;;;;;;;;15.75;15.50;;;;;12.51;56.41;102017.13;5030456;28;45254;-66
2023/05/03 04:49:52;;;;;;;;;22.25;19.50;;;;;12.43;56.33;102014.63;5033137;28;45479;-66
2023/05/03 04:52:18;;;;;;;;;21.75;19.75;;;;;12.35;56.51;102005.84;5041365;28;45418;-66
2023/05/03 04:54:44;;;;;;;;;26.00;21.00;;;;;12.21;56.15;101995.41;5041673;28;45598;-66
2023/05/03 04:57:09;;;;;;;;;23.75;20.50;;;;;12.18;56.35;101984.78;5040395;28;45728;-66
2023/05/03 04:59:35;;;;;;;;;25.00;22.75;;;;;12.28;56.27;102018.47;5022527;28;45633;-66
2023/05/03 05:02:03;;;;;;;;;24.00;17.50;;;;;12.22;56.20;102016.78;5041475;28;45388;-66
2023/05/03 05:04:28;;;;;;;;;28.75;24.75;;;;;11.91;57.29;101970.06;5041296;28;46254;-66
2023/05/03 05:06:53;;;;;;;;;27.50;22.00;;;;;12.07;56.96;101986.75;5041159;28;45309;-66
2023/05/03 05:09:24;;;;;;;;;27.50;26.00;;;;;12.11;56.61;102002.75;5040307;28;45572;-66
2023/05/03 05:11:50;;;;;;;;;25.25;21.75;;;;;12.08;56.64;102000.13;5041223;28;45514;-66
2023/05/03 05:14:15;;;;;;;;;23.75;21.00;;;;;11.98;56.80;101983.34;5041186;28;45632;-66
2023/05/03 05:16:41;;;;;;;;;24.50;22.00;;;;;12.21;57.19;102023.06;5019826;28;45511;-66
2023/05/03 05:19:07;;;;;;;;;21.25;19.75;;;;;12.15;57.07;102022.31;5037485;28;45509;-66
2023/05/03 05:21:33;;;;;;;;;15.00;15.00;;;;;11.95;57.45;102001.25;5040945;28;45332;-66
2023/05/03 05:23:58;;;;;;;;;17.50;16.25;;;;;12.12;57.42;102027.72;5019590;28;46118;-66
2023/05/03 05:26:26;;;;;;;;;22.00;20.00;;;;;11.89;57.21;101994.16;5038579;28;45493;-66
2023/05/03 05:28:51;;;;;;;;;20.00;18.25;;;;;12.00;57.33;102015.44;5040199;28;45395;-66
2023/05/03 05:31:16;;;;;;;;;22.00;17.25;;;;;11.87;57.18;102001.34;5022090;28;45504;-66
2023/05/03 05:33:42;;;;;;;;;20.00;16.00;;;;;11.79;57.23;101988.09;5023078;28;46143;-66
2023/05/03 05:36:07;;;;;;;;;15.50;15.50;;;;;11.78;57.43;101981.00;5023248;28;45460;-66
2023/05/03 05:38:33;;;;;;;;;22.50;17.25;;;;;11.66;57.65;101970.50;5040038;28;45355;-66
2023/05/03 05:40:58;;;;;;;;;16.25;15.25;;;;;11.72;57.96;101973.06;5041037;28;45655;-66
2023/05/03 05:43:23;;;;;;;;;18.00;16.50;;;;;11.70;57.95;101964.19;5040719;28;45550;-66
2023/05/03 05:45:49;;;;;;;;;16.25;15.25;;;;;11.85;57.77;101987.13;5040385;28;45404;-66
2023/05/03 05:48:14;;;;;;;;;17.75;17.00;;;;;11.95;57.97;102011.97;5040548;28;45495;-66
2023/05/03 05:50:40;;;;;;;;;17.50;15.00;;;;;12.04;57.35;102034.09;5040931;28;45371;-66
2023/05/03 05:53:05;;;;;;;;;14.50;13.75;;;;;11.96;57.77;102029.75;5039274;28;46436;-66
2023/05/03 05:55:30;;;;;;;;;16.25;14.00;;;;;11.79;57.77;102006.81;5039892;28;45488;-66
2023/05/03 05:57:56;;;;;;;;;15.75;12.50;;;;;11.79;57.84;102001.47;5040532;28;45309;-66
2023/05/03 06:00:21;;;;;;;;;17.75;14.50;;;;;11.76;57.81;102004.22;5040813;28;45359;-66
2023/05/03 06:02:47;;;;;;;;;17.50;14.50;;;;;11.88;57.91;102011.16;5038727;28;45444;-66
2023/05/03 06:05:13;;;;;;;;;19.00;14.50;;;;;11.99;57.89;102032.38;5035927;28;45547;-66
2023/05/03 06:07:39;;;;;;;;;19.50;17.00;;;;;11.70;57.92;101990.94;5036823;28;45419;-66
2023/05/03 06:10:05;;;;;;;;;17.50;14.25;;;;;11.92;57.75;102036.97;5040575;28;45558;-66
2023/05/03 06:12:30;;;;;;;;;15.75;13.25;;;;;11.71;57.77;102014.13;5022411;28;47426;-66
2023/05/03 06:14:56;;;;;;;;;18.25;15.00;;;;;12.00;58.16;102067.16;5036399;28;46043;-66
2023/05/03 06:17:25;;;;;;;;;16.00;15.75;;;;;11.80;57.94;102016.63;5035026;28;46658;-66
2023/05/03 06:19:51;;;;;;;;;19.00;16.00;;;;;11.79;58.04;102006.81;5036601;28;45490;-66
2023/05/03 06:22:18;;;;;;;;;19.75;18.00;;;;;11.81;58.16;102005.03;5032093;28;46643;-76
2023/05/03 06:24:44;;;;;;;;;11.75;10.75;;;;;11.81;58.10;101994.31;5037915;28;45330;-75
2023/05/03 06:38:13;;;;;;;;;17.75;14.75;;;;;12.08;58.29;102015.28;4921785;22;45573;-76
2023/05/03 06:40:40;;;;;;;;;19.50;16.25;;;;;12.12;58.38;102019.69;5043881;28;45401;-77
2023/05/03 06:43:06;;;;;;;;;14.00;14.00;;;;;12.19;58.26;102030.22;5045639;28;45327;-76
2023/05/03 06:45:31;;;;;;;;;20.50;18.75;;;;;12.20;58.30;102028.44;5059010;28;45565;-76
2023/05/03 06:47:56;;;;;;;;;20.00;18.75;;;;;12.20;58.04;102032.00;5047736;28;45275;-77
2023/05/03 06:50:23;;;;;;;;;20.50;18.50;;;;;12.26;57.96;102030.13;5054591;28;45485;-77
2023/05/03 06:52:48;;;;;;;;;17.00;16.25;;;;;12.25;57.83;102025.69;5058800;28;45447;-76
2023/05/03 06:55:14;;;;;;;;;18.25;17.50;;;;;12.26;57.89;102022.97;5054764;28;45346;-76
2023/05/03 06:57:40;;;;;;;;;20.75;18.00;;;;;12.32;58.00;102030.88;5057673;28;45310;-76
2023/05/03 07:00:06;;;;;;;;;19.75;16.25;;;;;12.38;58.05;102038.81;5055512;28;45328;-77
2023/05/03 07:02:32;;;;;;;;;19.50;15.25;;;;;12.42;58.14;102032.47;5057320;28;45254;-76
2023/05/03 07:04:57;;;;;;;;;16.25;15.00;;;;;12.46;58.38;102033.28;5053570;28;46370;-77
2023/05/03 07:07:22;;;;;;;;;21.00;18.00;;;;;12.51;58.15;102020.72;5061252;28;45453;-77
2023/05/03 07:09:48;;;;;;;;;18.75;17.75;;;;;12.55;58.15;102027.75;5060554;28;45393;-77
2023/05/03 07:12:13;;;;;;;;;16.00;14.75;;;;;12.52;57.64;102010.88;5054204;28;45380;-77
2023/05/03 07:14:39;;;;;;;;;20.50;18.50;;;;;12.53;57.65;102009.94;5044041;28;46164;-78
2023/05/03 07:17:05;;;;;;;;;17.25;16.25;;;;;12.62;57.74;102017.81;5056641;28;45271;-77
2023/05/03 07:19:30;;;;;;;;;22.50;18.25;;;;;12.62;57.56;102008.91;5034620;28;45501;-77
2023/05/03 07:21:56;;;;;;;;;19.00;17.25;;;;;12.69;57.70;102010.53;5044688;28;45650;-78
2023/05/03 07:24:23;;;;;;;;;12.00;11.00;;;;;12.71;57.74;102014.03;5052948;28;45382;-77
2023/05/03 07:26:49;;;;;;;;;16.00;15.00;;;;;12.67;57.54;101997.16;5040822;28;45905;-78
2023/05/03 07:29:14;;;;;;;;;18.25;15.00;;;;;12.78;58.01;102007.66;5049739;28;45358;-78
2023/05/03 07:31:39;;;;;;;;;20.75;16.00;;;;;12.81;57.76;102004.03;5059496;28;45298;-79
2023/05/03 07:34:05;;;;;;;;;16.25;13.25;;;;;12.91;58.02;102002.91;5058471;28;45799;-79
2023/05/03 07:36:31;;;;;;;;;13.75;13.75;;;;;12.98;57.20;101994.69;5047007;28;45371;-78
2023/05/03 07:38:56;;;;;;;;;15.00;15.00;;;;;13.08;57.76;102005.19;5044066;28;45208;-78
2023/05/03 07:41:21;;;;;;;;;19.50;17.25;;;;;13.16;57.25;102000.53;5029630;28;45335;-78
2023/05/03 07:43:46;;;;;;;;;15.75;15.50;;;;;13.23;57.26;101999.50;5041336;28;45390;-78
2023/05/03 07:46:12;;;;;;;;;17.00;16.75;;;;;13.14;57.10;101959.50;5039675;28;47462;-79
2023/05/03 07:48:37;;;;;;;;;18.75;15.00;;;;;13.35;57.20;101987.63;5035515;28;45421;-78
2023/05/03 07:51:04;;;;;;;;;19.75;17.50;;;;;13.44;57.51;101981.16;5021235;28;45500;-78
2023/05/03 07:53:29;;;;;;;;;18.75;17.00;;;;;13.45;56.95;101956.13;5042831;28;45453;-78
2023/05/03 07:55:54;;;;;;;;;16.00;15.25;;;;;13.53;56.73;101955.00;5043523;28;45190;-78
2023/05/03 07:58:20;;;;;;;;;17.00;16.00;;;;;13.69;56.81;101966.19;5046185;28;45279;-78
2023/05/03 08:00:45;;;;;;;;;16.25;16.25;;;;;13.71;56.21;101952.75;5038103;28;45524;-79
2023/05/03 08:03:10;;;;;;;;;17.75;16.75;;;;;13.79;56.05;101955.25;5036195;28;45458;-79
2023/05/03 08:05:36;;;;;;;;;18.50;17.25;;;;;13.82;55.76;101947.97;5035995;28;47849;-79
2023/05/03 08:08:02;;;;;;;;;19.00;17.00;;;;;13.86;55.89;101949.66;5033374;28;45457;-79
2023/05/03 08:10:28;;;;;;;;;15.25;14.25;;;;;13.97;56.00;101951.19;5037486;28;45452;-78
2023/05/03 08:12:54;;;;;;;;;14.75;14.00;;;;;13.98;55.73;101940.41;5021241;28;46150;-78
2023/05/03 08:15:19;;;;;;;;;18.00;15.25;;;;;14.16;55.71;101949.72;5037485;28;45363;-79
2023/05/03 08:17:45;;;;;;;;;17.50;16.00;;;;;14.26;55.68;101953.91;5020604;28;45399;-79
2023/05/03 08:20:12;;;;;;;;;13.50;13.50;;;;;14.31;55.29;101936.81;5032903;28;45399;-79
2023/05/03 08:22:39;;;;;;;;;17.50;16.75;;;;;14.43;55.37;101948.06;5011408;28;48031;-81
2023/05/03 08:25:05;;;;;;;;;14.75;13.25;;;;;14.50;55.15;101939.81;5026869;28;45475;-78
2023/05/03 08:27:31;;;;;;;;;12.00;11.00;;;;;14.58;55.26;101946.75;5022946;28;45421;-78
2023/05/03 08:29:56;;;;;;;;;16.00;14.50;;;;;14.59;54.96;101926.16;5028382;28;45982;-79
2023/05/03 08:32:23;;;;;;;;;14.75;13.00;;;;;14.66;54.53;101932.22;5047495;28;45317;-79
2023/05/03 08:34:49;;;;;;;;;15.75;14.00;;;;;14.74;54.88;101939.13;5033796;28;45525;-79
2023/05/03 08:37:15;;;;;;;;;15.50;15.50;;;;;14.78;54.48;101939.91;5038207;28;45635;-77
2023/05/03 08:39:40;;;;;;;;;16.00;15.00;;;;;14.80;54.53;101946.09;5043550;28;46245;-78
2023/05/03 08:42:07;;;;;;;;;19.25;15.75;;;;;14.80;54.82;101930.88;5036242;28;46033;-77
2023/05/03 08:44:36;;;;;;;;;17.25;16.75;;;;;14.95;54.64;101931.31;5037781;28;45665;-78
2023/05/03 08:47:06;;;;;;;;;15.00;14.00;;;;;15.04;54.00;101940.91;5041438;28;45325;-79
2023/05/03 08:49:36;;;;;;;;;17.50;16.50;;;;;14.92;54.13;101905.41;5030487;28;45533;-78
2023/05/03 08:52:05;;;;;;;;;14.00;13.00;;;;;15.14;54.13;101929.78;5034241;28;45402;-78
2023/05/03 08:54:30;;;;;;;;;12.50;12.00;;;;;15.15;53.96;101923.50;5027615;28;45394;-79
2023/05/03 08:56:55;;;;;;;;;13.50;13.50;;;;;15.19;54.09;101919.75;5028937;28;45723;-79
2023/05/03 08:59:21;;;;;;;;;19.00;16.00;;;;;15.33;54.06;101929.19;5037865;28;45435;-79
2023/05/03 09:01:47;;;;;;;;;12.75;11.00;;;;;15.35;53.46;101916.56;5040334;28;45339;-78
2023/05/03 09:04:12;;;;;;;;;15.25;15.00;;;;;15.37;53.36;101910.19;5040940;28;45300;-79
2023/05/03 09:06:38;;;;;;;;;15.00;13.00;;;;;15.51;53.66;101923.16;5027074;28;45253;-79
2023/05/03 09:09:08;;;;;;;;;13.50;12.25;;;;;15.57;53.09;101919.41;5027555;28;45272;-77
2023/05/03 09:11:35;;;;;;;;;14.00;13.00;;;;;15.64;53.19;101925.47;5027950;28;47752;-77
2023/05/03 09:14:12;;;;;;;;;13.00;11.50;;;;;15.67;52.95;101914.56;5035470;28;45602;-77
2023/05/03 09:16:44;;;;;;;;;11.75;11.75;;;;;15.70;52.96;101914.47;5019525;28;45359;-76
2023/05/03 09:19:11;;;;;;;;;14.50;14.25;;;;;15.76;51.97;101916.09;5030856;28;45487;-78
2023/05/03 09:21:41;;;;;;;;;12.75;12.75;;;;;15.76;51.93;101911.59;5043569;28;45685;-78
2023/05/03 09:24:14;;;;;;;;;18.00;16.50;;;;;15.84;52.35;101903.25;5036655;28;46037;-77
2023/05/03 09:26:41;;;;;;;;;9.50;9.50;;;;;15.87;52.00;101904.03;5038723;28;45336;-78
2023/05/03 09:29:07;;;;;;;;;13.75;12.50;;;;;15.97;51.83;101909.06;5037930;28;45513;-78
2023/05/03 09:31:34;;;;;;;;;14.00;13.75;;;;;15.98;51.33;101903.63;5044326;28;45548;-78
2023/05/03 09:34:00;;;;;;;;;12.50;12.00;;;;;16.03;51.00;101908.84;5043429;28;45582;-78
2023/05/03 09:36:26;;;;;;;;;14.25;13.75;;;;;16.04;51.07;101907.91;5042097;28;45629;-80
2023/05/03 09:38:54;;;;;;;;;14.25;14.25;;;;;16.13;51.27;101901.31;5034336;28;45906;-78
2023/05/03 09:41:27;;;;;;;;;12.00;10.50;;;;;16.20;51.22;101903.69;5043706;28;47484;-78
2023/05/03 09:43:55;;;;;;;;;14.00;12.75;;;;;16.17;51.00;101887.66;5066482;28;45446;-78
2023/05/03 09:46:22;;;;;;;;;12.25;11.00;;;;;16.36;50.65;101905.84;5065045;28;45602;-78
2023/05/03 09:48:49;;;;;;;;;13.75;11.25;;;;;16.38;50.82;101899.44;5068110;28;46565;-78
2023/05/03 09:51:15;;;;;;;;;14.00;14.00;;;;;16.44;50.66;101906.41;5060901;28;45395;-78
2023/05/03 09:53:40;;;;;;;;;16.00;14.75;;;;;16.49;50.84;101904.41;5060560;28;45545;-78
2023/05/03 09:56:11;;;;;;;;;14.00;13.00;;;;;16.43;50.95;101889.34;5041139;28;45315;-78
2023/05/03 09:58:37;;;;;;;;;14.75;12.75;;;;;16.60;51.01;101904.84;5067305;28;45479;-80
2023/05/03 10:01:03;;;;;;;;;11.75;10.75;;;;;16.66;50.96;101893.84;5043724;28;47081;-78
2023/05/03 10:03:34;;;;;;;;;11.75;11.75;;;;;16.72;50.91;101886.44;5061484;28;45895;-78
2023/05/03 10:06:04;;;;;;;;;15.50;13.25;;;;;16.72;50.59;101879.22;5059284;28;45649;-77
2023/05/03 10:08:35;;;;;;;;;13.00;12.25;;;;;16.79;50.96;101887.94;5050389;28;45410;-77
2023/05/03 10:11:03;;;;;;;;;14.50;13.25;;;;;16.85;50.46;101879.66;5057631;28;45303;-78
2023/05/03 10:13:29;;;;;;;;;14.00;13.00;;;;;16.72;50.63;101852.25;5069370;28;45403;-78
2023/05/03 10:16:05;;;;;;;;;5.75;3.75;;;;;16.94;50.27;101875.69;5066225;28;45474;-78
2023/05/03 10:18:33;;;;;;;;;13.00;12.50;;;;;16.91;50.67;101852.44;5060159;28;45352;-77
2023/05/03 10:21:09;;;;;;;;;14.00;11.75;;;;;17.02;50.24;101850.19;5057708;28;45847;-77
2023/05/03 10:23:34;;;;;;;;;12.25;11.75;;;;;17.12;49.94;101869.53;5056758;28;45231;-77
2023/05/03 10:26:06;;;;;;;;;14.00;12.75;;;;;17.17;50.23;101861.25;5059192;28;45443;-77
2023/05/03 10:28:36;;;;;;;;;12.50;11.25;;;;;17.21;50.19;101860.19;5056445;28;45347;-78
2023/05/03 10:31:01;;;;;;;;;12.75;12.75;;;;;17.21;50.34;101857.50;5054936;28;45454;-78
2023/05/03 10:33:28;;;;;;;;;14.75;14.75;;;;;17.22;50.26;101864.63;5059678;28;45479;-78
2023/05/03 10:35:54;;;;;;;;;15.75;14.00;;;;;17.24;50.15;101854.69;5059272;28;45377;-78
2023/05/03 10:38:21;;;;;;;;;11.00;10.50;;;;;17.29;50.20;101849.06;5039921;28;46010;-77
2023/05/03 10:40:47;;;;;;;;;14.50;12.00;;;;;17.26;49.76;101824.91;5042257;28;45292;-78
2023/05/03 10:43:27;;;;;;;;;14.00;14.00;;;;;17.40;50.23;101846.78;5042482;28;45495;-78
2023/05/03 10:46:02;;;;;;;;;11.50;11.00;;;;;17.42;49.70;101834.09;5043035;28;45377;-77
2023/05/03 10:48:28;;;;;;;;;15.25;15.00;;;;;17.45;49.69;101833.97;5048198;28;45561;-77
2023/05/03 10:50:55;;;;;;;;;11.75;11.75;;;;;17.53;49.86;101839.91;5041395;28;45528;-80
2023/05/03 10:53:30;;;;;;;;;10.50;10.50;;;;;17.55;49.17;101826.34;5023247;28;45553;-77
2023/05/03 10:56:12;;;;;;;;;9.75;9.00;;;;;17.61;49.79;101820.69;5035747;28;45390;-78
2023/05/03 10:58:40;;;;;;;;;12.25;10.50;;;;;17.67;49.69;101823.06;5022176;28;45320;-77
2023/05/03 11:01:09;;;;;;;;;13.25;11.25;;;;;17.67;49.42;101804.19;5021651;28;47032;-78
2023/05/03 11:04:01;;;;;;;;;14.00;13.00;;;;;17.76;50.24;101805.59;5039173;28;45285;-77
2023/05/03 11:06:34;;;;;;;;;15.75;13.75;;;;;17.87;50.60;101810.53;5039558;28;45458;-77
2023/05/03 11:09:02;;;;;;;;;11.50;10.25;;;;;17.97;49.79;101814.56;5038469;28;45312;-77
2023/05/03 11:11:28;;;;;;;;;13.00;12.25;;;;;17.97;49.43;101798.34;5028885;28;45379;-78
2023/05/03 11:13:53;;;;;;;;;11.00;10.50;;;;;18.01;49.35;101805.38;5035772;28;45426;-78
2023/05/03 11:16:19;;;;;;;;;12.00;10.75;;;;;18.06;49.13;101811.44;5042174;28;45294;-78
2023/05/03 11:18:45;;;;;;;;;11.75;11.25;;;;;18.08;49.28;101793.31;5039053;28;45212;-78